createdAt,value
2023-05-19T00:00:24.998Z,100635.25
2023-05-19T00:01:28.464Z,100633.66
2023-05-19T00:02:33.948Z,100625.84
2023-05-19T00:03:40.814Z,100634.75
2023-05-19T00:04:43.411Z,100629.50
2023-05-19T00:05:46.358Z,100632.09
2023-05-19T00:06:52.052Z,100642.28
2023-05-19T00:07:58.203Z,100655.09
2023-05-19T00:09:02.787Z,100651.41
2023-05-19T00:10:06.009Z,100654.69
2023-05-19T00:11:08.589Z,100658.72
2023-05-19T00:12:11.644Z,100652.69
2023-05-19T00:13:13.951Z,100646.16
2023-05-19T00:14:16.213Z,100653.19
2023-05-19T00:15:18.795Z,100653.31
2023-05-19T00:16:22.099Z,100642.59
2023-05-19T00:17:24.941Z,100643.38
2023-05-19T00:18:29.975Z,100640.59
2023-05-19T00:19:32.553Z,100654.56
2023-05-19T00:20:34.797Z,100646.53
2023-05-19T00:21:38.670Z,100649.00
2023-05-19T00:22:40.752Z,100648.03
2023-05-19T00:23:42.880Z,100650.78
2023-05-19T00:24:44.917Z,100647.47
2023-05-19T00:25:47.056Z,100641.38
2023-05-19T00:26:49.263Z,100647.59
2023-05-19T00:27:51.755Z,100639.63
2023-05-19T00:28:54.359Z,100646.66
2023-05-19T00:29:56.936Z,100640.41
2023-05-19T00:30:58.962Z,100639.31
2023-05-19T00:32:01.171Z,100639.88
2023-05-19T00:33:03.181Z,100636.03
2023-05-19T00:34:05.357Z,100634.81
2023-05-19T00:35:07.825Z,100631.97
2023-05-19T00:36:10.114Z,100635.19
2023-05-19T00:37:12.111Z,100627.75
2023-05-19T00:38:14.217Z,100631.94
2023-05-19T00:39:16.606Z,100634.22
2023-05-19T00:41:49.013Z,100637.16
2023-05-19T00:42:51.219Z,100636.16
2023-05-19T00:43:53.321Z,100637.84
2023-05-19T00:44:55.528Z,100642.22
2023-05-19T00:45:58.150Z,100642.22
2023-05-19T00:47:01.302Z,100649.25
2023-05-19T00:48:03.412Z,100644.72
2023-05-19T00:49:05.663Z,100641.25
2023-05-19T00:50:07.917Z,100637.72
2023-05-19T00:51:10.567Z,100641.19
2023-05-19T00:52:12.812Z,100642.47
2023-05-19T00:53:16.938Z,100640.31
2023-05-19T00:54:20.032Z,100636.19
2023-05-19T00:55:24.644Z,100632.97
2023-05-19T00:56:27.265Z,100640.50
2023-05-19T00:57:29.617Z,100626.66
2023-05-19T00:58:33.503Z,100638.53
2023-05-19T00:59:35.978Z,100635.06
2023-05-19T01:00:39.835Z,100636.03
2023-05-19T01:01:42.231Z,100646.03
2023-05-19T01:02:44.657Z,100646.16
2023-05-19T01:03:48.258Z,100644.50
2023-05-19T01:04:51.669Z,100641.69
2023-05-19T01:05:53.916Z,100646.81
2023-05-19T01:06:56.886Z,100652.03
2023-05-19T01:07:59.417Z,100648.56
2023-05-19T01:09:01.440Z,100642.47
2023-05-19T01:10:04.501Z,100645.31
2023-05-19T01:11:07.236Z,100651.47
2023-05-19T01:12:09.793Z,100643.41
2023-05-19T01:13:12.239Z,100641.59
2023-05-19T01:14:15.221Z,100642.34
2023-05-19T01:15:17.332Z,100643.16
2023-05-19T01:16:30.998Z,100637.78
2023-05-19T01:17:42.624Z,100641.38
2023-05-19T01:19:12.542Z,100655.25
2023-05-19T01:20:26.159Z,100653.28
2023-05-19T01:21:36.569Z,100647.16
2023-05-19T01:23:02.803Z,100651.16
2023-05-19T01:24:50.185Z,100647.34
2023-05-19T01:26:37.234Z,100651.13
2023-05-19T01:27:59.264Z,100663.16
2023-05-19T01:29:26.897Z,100657.25
2023-05-19T01:30:40.856Z,100664.59
2023-05-19T01:31:44.716Z,100660.06
2023-05-19T01:32:48.362Z,100654.22
2023-05-19T01:33:53.275Z,100658.09
2023-05-19T01:34:57.341Z,100651.22
2023-05-19T01:36:03.306Z,100656.72
2023-05-19T01:37:06.026Z,100654.19
2023-05-19T01:38:10.046Z,100657.78
2023-05-19T01:39:13.366Z,100662.19
2023-05-19T01:40:16.102Z,100665.75
2023-05-19T01:41:22.140Z,100662.94
2023-05-19T01:42:25.569Z,100663.84
2023-05-19T01:43:28.656Z,100662.13
2023-05-19T01:44:32.917Z,100664.97
2023-05-19T01:45:36.187Z,100669.66
2023-05-19T01:46:39.009Z,100667.72
2023-05-19T01:47:44.052Z,100668.53
2023-05-19T01:48:47.627Z,100668.53
2023-05-19T01:49:49.788Z,100669.44
2023-05-19T01:50:52.314Z,100671.09
2023-05-19T01:51:54.620Z,100668.28
2023-05-19T01:52:56.943Z,100674.28
2023-05-19T01:53:59.213Z,100673.22
2023-05-19T01:55:01.916Z,100668.75
2023-05-19T01:56:06.181Z,100666.13
2023-05-19T01:57:40.804Z,100663.34
2023-05-19T01:58:48.545Z,100667.06
2023-05-19T02:00:20.550Z,100666.00
2023-05-19T02:01:35.284Z,100660.53
2023-05-19T02:02:58.584Z,100653.34
2023-05-19T02:04:16.394Z,100658.94
2023-05-19T02:05:34.656Z,100656.09
2023-05-19T02:07:06.058Z,100654.94
2023-05-19T02:08:21.260Z,100665.00
2023-05-19T02:09:31.900Z,100663.94
2023-05-19T02:10:41.187Z,100657.78
2023-05-19T02:12:18.690Z,100668.06
2023-05-19T02:13:23.780Z,100661.81
2023-05-19T02:14:34.268Z,100674.94
2023-05-19T02:15:42.346Z,100675.88
2023-05-19T02:16:48.589Z,100675.28
2023-05-19T02:17:54.610Z,100670.06
2023-05-19T02:19:34.764Z,100666.06
2023-05-19T02:20:36.819Z,100670.59
2023-05-19T02:21:38.866Z,100667.00
2023-05-19T02:22:41.742Z,100658.72
2023-05-19T02:23:43.789Z,100668.25
2023-05-19T02:24:48.040Z,100676.47
2023-05-19T02:25:50.125Z,100669.66
2023-05-19T02:26:53.881Z,100673.38
2023-05-19T02:27:56.093Z,100666.06
2023-05-19T02:28:58.405Z,100675.50
2023-05-19T02:30:10.076Z,100676.13
2023-05-19T02:31:12.858Z,100677.66
2023-05-19T02:32:15.380Z,100673.78
2023-05-19T02:33:19.502Z,100676.75
2023-05-19T02:34:21.496Z,100680.22
2023-05-19T02:35:23.698Z,100673.25
2023-05-19T02:36:26.795Z,100674.09
2023-05-19T02:37:29.472Z,100673.22
2023-05-19T02:38:31.852Z,100672.31
2023-05-19T02:39:35.461Z,100681.97
2023-05-19T02:40:37.807Z,100685.09
2023-05-19T02:41:40.052Z,100686.22
2023-05-19T02:42:42.013Z,100677.59
2023-05-19T02:43:44.115Z,100678.94
2023-05-19T02:44:46.462Z,100679.19
2023-05-19T02:45:48.738Z,100685.38
2023-05-19T02:46:51.045Z,100683.19
2023-05-19T02:47:53.183Z,100683.44
2023-05-19T02:48:55.857Z,100683.25
2023-05-19T02:49:58.000Z,100683.13
2023-05-19T02:51:00.033Z,100681.34
2023-05-19T02:52:03.541Z,100690.06
2023-05-19T02:53:05.623Z,100689.28
2023-05-19T02:54:07.819Z,100691.94
2023-05-19T02:55:10.246Z,100688.94
2023-05-19T02:56:12.479Z,100690.72
2023-05-19T02:57:14.476Z,100688.88
2023-05-19T02:58:16.579Z,100688.66
2023-05-19T02:59:18.646Z,100680.69
2023-05-19T03:00:20.897Z,100685.34
2023-05-19T03:01:23.439Z,100685.69
2023-05-19T03:02:25.927Z,100686.47
2023-05-19T03:03:28.931Z,100692.00
2023-05-19T03:04:31.321Z,100693.28
2023-05-19T03:05:33.445Z,100681.94
2023-05-19T03:06:36.670Z,100697.47
2023-05-19T03:07:38.855Z,100694.41
2023-05-19T03:08:42.456Z,100688.38
2023-05-19T03:09:44.583Z,100690.97
2023-05-19T03:10:47.195Z,100688.81
2023-05-19T03:11:49.222Z,100684.19
2023-05-19T03:12:51.470Z,100693.38
2023-05-19T03:13:53.478Z,100684.75
2023-05-19T03:14:55.836Z,100682.72
2023-05-19T03:15:59.455Z,100681.78
2023-05-19T03:17:01.910Z,100683.50
2023-05-19T03:18:04.220Z,100677.00
2023-05-19T03:19:06.405Z,100677.22
2023-05-19T03:20:09.023Z,100683.19
2023-05-19T03:21:11.267Z,100684.81
2023-05-19T03:22:13.304Z,100679.84
2023-05-19T03:23:15.577Z,100678.75
2023-05-19T03:24:18.269Z,100684.50
2023-05-19T03:25:20.545Z,100690.41
2023-05-19T03:26:23.456Z,100684.03
2023-05-19T03:27:26.144Z,100686.63
2023-05-19T03:28:28.231Z,100678.13
2023-05-19T03:29:30.412Z,100680.03
2023-05-19T03:30:32.768Z,100693.22
2023-05-19T03:31:35.132Z,100685.47
2023-05-19T03:32:40.394Z,100686.75
2023-05-19T03:33:42.674Z,100691.28
2023-05-19T03:34:44.922Z,100691.28
2023-05-19T03:35:47.021Z,100686.63
2023-05-19T03:36:50.518Z,100692.38
2023-05-19T03:37:52.990Z,100685.13
2023-05-19T03:38:55.161Z,100687.69
2023-05-19T03:39:57.736Z,100690.63
2023-05-19T03:40:59.816Z,100682.22
2023-05-19T03:42:01.994Z,100685.97
2023-05-19T03:43:04.172Z,100690.06
2023-05-19T03:44:06.348Z,100684.63
2023-05-19T03:45:09.006Z,100683.25
2023-05-19T03:46:11.207Z,100688.78
2023-05-19T03:47:13.247Z,100691.75
2023-05-19T03:48:17.110Z,100688.38
2023-05-19T03:49:20.795Z,100694.44
2023-05-19T03:50:23.169Z,100695.41
2023-05-19T03:51:25.258Z,100694.19
2023-05-19T03:52:27.405Z,100694.53
2023-05-19T03:53:30.568Z,100690.44
2023-05-19T03:54:32.788Z,100686.75
2023-05-19T03:55:34.834Z,100693.19
2023-05-19T03:56:39.873Z,100693.28
2023-05-19T03:57:43.541Z,100691.84
2023-05-19T03:58:47.290Z,100687.78
2023-05-19T03:59:49.389Z,100694.25
2023-05-19T04:00:51.630Z,100696.09
2023-05-19T04:01:53.782Z,100694.09
2023-05-19T04:02:56.177Z,100689.84
2023-05-19T04:03:58.425Z,100695.50
2023-05-19T04:05:00.888Z,100695.63
2023-05-19T04:06:03.489Z,100697.69
2023-05-19T04:07:05.778Z,100692.28
2023-05-19T04:08:07.867Z,100685.00
2023-05-19T04:09:14.526Z,100689.59
2023-05-19T04:10:16.590Z,100694.41
2023-05-19T04:11:20.380Z,100689.03
2023-05-19T04:12:22.227Z,100692.41
2023-05-19T04:13:24.330Z,100694.22
2023-05-19T04:14:26.518Z,100696.53
2023-05-19T04:15:29.006Z,100695.94
2023-05-19T04:16:31.566Z,100699.28
2023-05-19T04:17:33.654Z,100699.53
2023-05-19T04:18:35.842Z,100699.16
2023-05-19T04:19:37.975Z,100698.97
2023-05-19T04:20:40.061Z,100694.66
2023-05-19T04:21:42.167Z,100691.41
2023-05-19T04:22:44.512Z,100695.25
2023-05-19T04:23:46.526Z,100693.88
2023-05-19T04:24:49.266Z,100687.56
2023-05-19T04:25:51.491Z,100693.63
2023-05-19T04:26:53.947Z,100690.53
2023-05-19T04:27:57.948Z,100690.69
2023-05-19T04:29:00.798Z,100693.44
2023-05-19T04:30:03.934Z,100697.41
2023-05-19T04:31:13.041Z,100702.84
2023-05-19T04:32:18.049Z,100708.16
2023-05-19T04:33:21.284Z,100705.81
2023-05-19T04:34:23.537Z,100707.16
2023-05-19T04:35:25.714Z,100708.00
2023-05-19T04:36:27.873Z,100707.38
2023-05-19T04:37:30.250Z,100704.19
2023-05-19T04:38:32.443Z,100707.53
2023-05-19T04:39:34.562Z,100704.09
2023-05-19T04:40:37.284Z,100700.91
2023-05-19T04:41:42.249Z,100705.19
2023-05-19T04:42:46.200Z,100701.13
2023-05-19T04:43:48.625Z,100702.75
2023-05-19T04:44:52.033Z,100700.13
2023-05-19T04:45:55.066Z,100699.19
2023-05-19T04:46:58.616Z,100700.25
2023-05-19T04:48:00.771Z,100706.06
2023-05-19T04:49:03.356Z,100707.00
2023-05-19T04:50:05.925Z,100699.78
2023-05-19T04:51:08.008Z,100698.28
2023-05-19T04:52:11.806Z,100695.69
2023-05-19T04:53:13.841Z,100710.38
2023-05-19T04:54:15.975Z,100704.03
2023-05-19T04:55:18.003Z,100703.94
2023-05-19T04:56:19.990Z,100704.44
2023-05-19T04:57:22.188Z,100705.28
2023-05-19T04:58:27.631Z,100700.38
2023-05-19T04:59:29.734Z,100699.28
2023-05-19T05:00:36.049Z,100706.13
2023-05-19T05:01:41.298Z,100700.25
2023-05-19T05:02:43.801Z,100701.97
2023-05-19T05:03:46.236Z,100696.72
2023-05-19T05:04:48.399Z,100701.59
2023-05-19T05:05:50.847Z,100694.00
2023-05-19T05:06:52.888Z,100700.53
2023-05-19T05:07:55.049Z,100706.69
2023-05-19T05:08:57.196Z,100705.03
2023-05-19T05:09:59.283Z,100700.59
2023-05-19T05:11:01.629Z,100702.84
2023-05-19T05:12:04.023Z,100701.63
2023-05-19T05:13:06.461Z,100697.44
2023-05-19T05:14:09.194Z,100701.13
2023-05-19T05:15:11.789Z,100704.28
2023-05-19T05:16:14.605Z,100703.56
2023-05-19T05:17:17.241Z,100699.25
2023-05-19T05:18:19.716Z,100700.13
2023-05-19T05:19:31.190Z,100706.66
2023-05-19T05:20:33.854Z,100697.50
2023-05-19T05:21:36.285Z,100694.53
2023-05-19T05:22:42.272Z,100704.25
2023-05-19T05:23:44.441Z,100706.19
2023-05-19T05:24:47.096Z,100704.00
2023-05-19T05:25:49.413Z,100705.50
2023-05-19T05:26:52.099Z,100711.94
2023-05-19T05:27:54.256Z,100714.47
2023-05-19T05:28:56.598Z,100713.09
2023-05-19T05:29:59.283Z,100711.78
2023-05-19T05:31:01.640Z,100708.63
2023-05-19T05:32:03.831Z,100715.38
2023-05-19T05:33:06.607Z,100713.88
2023-05-19T05:34:08.891Z,100721.44
2023-05-19T05:35:11.171Z,100724.13
2023-05-19T05:36:13.856Z,100713.84
2023-05-19T05:37:15.931Z,100712.56
2023-05-19T05:38:18.026Z,100718.78
2023-05-19T05:39:20.126Z,100709.38
2023-05-19T05:40:22.120Z,100720.06
2023-05-19T05:41:24.188Z,100712.09
2023-05-19T05:42:28.204Z,100708.31
2023-05-19T05:43:31.828Z,100715.59
2023-05-19T05:44:35.841Z,100717.81
2023-05-19T05:45:38.197Z,100713.19
2023-05-19T05:46:40.519Z,100717.50
2023-05-19T05:47:42.965Z,100723.78
2023-05-19T05:48:45.698Z,100722.31
2023-05-19T05:49:48.843Z,100720.09
2023-05-19T05:50:52.230Z,100715.63
2023-05-19T05:53:05.307Z,100721.03
2023-05-19T05:54:08.146Z,100717.56
2023-05-19T05:55:11.101Z,100720.53
2023-05-19T05:56:13.929Z,100712.16
2023-05-19T05:57:16.275Z,100718.72
2023-05-19T05:58:18.345Z,100724.44
2023-05-19T05:59:20.641Z,100712.41
2023-05-19T06:00:22.968Z,100720.28
2023-05-19T06:01:25.030Z,100729.66
2023-05-19T06:02:28.491Z,100722.13
2023-05-19T06:03:32.261Z,100719.81
2023-05-19T06:04:34.275Z,100723.06
2023-05-19T06:05:36.396Z,100714.97
2023-05-19T06:06:39.227Z,100720.47
2023-05-19T06:07:41.548Z,100712.63
2023-05-19T06:08:43.712Z,100719.13
2023-05-19T06:09:46.131Z,100709.91
2023-05-19T06:10:48.295Z,100713.94
2023-05-19T06:11:50.319Z,100711.81
2023-05-19T06:12:52.527Z,100708.44
2023-05-19T06:13:54.629Z,100716.22
2023-05-19T06:14:56.960Z,100710.97
2023-05-19T06:16:00.556Z,100706.44
2023-05-19T06:17:04.131Z,100710.03
2023-05-19T06:18:06.424Z,100716.34
2023-05-19T06:19:08.899Z,100719.81
2023-05-19T06:20:11.847Z,100718.31
2023-05-19T06:21:14.166Z,100719.50
2023-05-19T06:22:16.282Z,100713.75
2023-05-19T06:23:18.361Z,100711.66
2023-05-19T06:24:20.457Z,100716.56
2023-05-19T06:25:23.026Z,100722.13
2023-05-19T06:26:25.037Z,100722.03
2023-05-19T06:27:27.070Z,100715.91
2023-05-19T06:28:29.192Z,100717.56
2023-05-19T06:29:31.276Z,100709.47
2023-05-19T06:30:33.425Z,100715.63
2023-05-19T06:31:35.792Z,100715.38
2023-05-19T06:32:37.980Z,100716.97
2023-05-19T06:33:40.021Z,100714.00
2023-05-19T06:34:42.238Z,100710.94
2023-05-19T06:35:44.214Z,100712.66
2023-05-19T06:36:46.270Z,100716.34
2023-05-19T06:37:48.340Z,100708.94
2023-05-19T06:38:50.598Z,100705.97
2023-05-19T06:39:53.896Z,100712.38
2023-05-19T06:40:56.040Z,100706.63
2023-05-19T06:41:58.152Z,100709.78
2023-05-19T06:43:00.140Z,100714.06
2023-05-19T06:44:03.821Z,100718.69
2023-05-19T06:45:06.455Z,100713.41
2023-05-19T06:46:10.892Z,100715.53
2023-05-19T06:47:13.011Z,100702.78
2023-05-19T06:48:15.310Z,100718.59
2023-05-19T06:49:17.455Z,100715.69
2023-05-19T06:50:19.506Z,100715.44
2023-05-19T06:51:22.537Z,100714.09
2023-05-19T06:52:25.078Z,100712.56
2023-05-19T06:53:27.071Z,100715.16
2023-05-19T06:54:29.302Z,100721.44
2023-05-19T06:55:32.362Z,100718.00
2023-05-19T06:56:34.644Z,100717.34
2023-05-19T06:57:36.678Z,100712.78
2023-05-19T06:58:39.668Z,100716.09
2023-05-19T06:59:43.629Z,100714.13
2023-05-19T07:00:45.715Z,100718.75
2023-05-19T07:01:47.853Z,100718.13
2023-05-19T07:02:50.046Z,100710.25
2023-05-19T07:03:52.366Z,100708.25
2023-05-19T07:04:54.765Z,100716.47
2023-05-19T07:05:56.993Z,100713.25
2023-05-19T07:06:59.138Z,100703.41
2023-05-19T07:08:01.864Z,100704.78
2023-05-19T07:09:05.819Z,100703.94
2023-05-19T07:10:09.590Z,100712.06
2023-05-19T07:11:12.592Z,100709.94
2023-05-19T07:12:14.613Z,100708.47
2023-05-19T07:13:16.967Z,100712.34
2023-05-19T07:14:19.061Z,100702.09
2023-05-19T07:15:21.161Z,100707.75
2023-05-19T07:16:23.289Z,100706.94
2023-05-19T07:17:25.605Z,100707.56
2023-05-19T07:18:27.696Z,100701.38
2023-05-19T07:19:29.969Z,100706.84
2023-05-19T07:20:32.278Z,100711.06
2023-05-19T07:21:34.688Z,100706.00
2023-05-19T07:22:38.704Z,100714.03
2023-05-19T07:23:40.833Z,100702.00
2023-05-19T07:24:42.797Z,100706.69
2023-05-19T07:25:44.950Z,100706.97
2023-05-19T07:26:47.112Z,100702.22
2023-05-19T07:27:49.303Z,100709.63
2023-05-19T07:28:52.175Z,100707.59
2023-05-19T07:29:54.607Z,100707.03
2023-05-19T07:30:56.716Z,100708.03
2023-05-19T07:31:59.035Z,100715.91
2023-05-19T07:33:01.006Z,100713.28
2023-05-19T07:34:03.793Z,100710.94
2023-05-19T07:35:06.814Z,100703.06
2023-05-19T07:36:09.238Z,100712.97
2023-05-19T07:37:11.270Z,100701.16
2023-05-19T07:38:13.418Z,100700.84
2023-05-19T07:39:15.695Z,100704.00
2023-05-19T07:40:17.881Z,100701.06
2023-05-19T07:41:19.988Z,100702.50
2023-05-19T07:42:22.248Z,100709.88
2023-05-19T07:43:24.409Z,100710.09
2023-05-19T07:44:27.353Z,100710.19
2023-05-19T07:45:29.606Z,100706.19
2023-05-19T07:46:31.879Z,100712.97
2023-05-19T07:47:34.089Z,100711.28
2023-05-19T07:48:36.330Z,100705.78
2023-05-19T07:49:38.371Z,100707.63
2023-05-19T07:50:40.478Z,100714.38
2023-05-19T07:51:42.524Z,100694.88
2023-05-19T07:52:44.818Z,100699.47
2023-05-19T07:53:47.428Z,100696.63
2023-05-19T07:54:49.521Z,100709.25
2023-05-19T07:55:51.548Z,100699.50
2023-05-19T07:56:53.963Z,100706.00
2023-05-19T07:57:56.453Z,100699.38
2023-05-19T07:58:58.788Z,100705.16
2023-05-19T08:00:01.238Z,100705.69
2023-05-19T08:01:05.054Z,100700.78
2023-05-19T08:02:07.915Z,100707.94
2023-05-19T08:03:10.860Z,100705.38
2023-05-19T08:04:13.790Z,100704.38
2023-05-19T08:05:16.007Z,100708.22
2023-05-19T08:06:18.024Z,100711.28
2023-05-19T08:07:20.672Z,100705.00
2023-05-19T08:08:22.887Z,100699.13
2023-05-19T08:09:25.027Z,100705.13
2023-05-19T08:10:27.141Z,100715.09
2023-05-19T08:11:29.281Z,100711.75
2023-05-19T08:12:31.565Z,100709.16
2023-05-19T08:13:34.949Z,100705.34
2023-05-19T08:14:37.615Z,100703.16
2023-05-19T08:15:40.304Z,100702.06
2023-05-19T08:16:43.200Z,100702.56
2023-05-19T08:17:45.748Z,100706.88
2023-05-19T08:18:47.999Z,100699.63
2023-05-19T08:19:50.087Z,100703.25
2023-05-19T08:20:52.359Z,100701.38
2023-05-19T08:21:54.454Z,100692.53
2023-05-19T08:22:56.477Z,100694.25
2023-05-19T08:23:58.746Z,100699.94
2023-05-19T08:25:01.738Z,100693.47
2023-05-19T08:26:06.201Z,100685.09
2023-05-19T08:27:08.204Z,100689.53
2023-05-19T08:28:10.446Z,100691.50
2023-05-19T08:29:12.535Z,100692.25
2023-05-19T08:30:14.929Z,100693.22
2023-05-19T08:31:18.573Z,100698.56
2023-05-19T08:32:20.530Z,100696.44
2023-05-19T08:33:23.040Z,100689.66
2023-05-19T08:34:25.351Z,100685.75
2023-05-19T08:35:28.119Z,100692.03
2023-05-19T08:36:31.026Z,100686.75
2023-05-19T08:37:34.190Z,100692.53
2023-05-19T08:38:36.416Z,100694.88
2023-05-19T08:39:38.447Z,100694.75
2023-05-19T08:40:46.913Z,100702.84
2023-05-19T08:41:49.063Z,100697.69
2023-05-19T08:42:51.500Z,100692.28
2023-05-19T08:43:53.616Z,100689.31
2023-05-19T08:44:56.094Z,100697.94
2023-05-19T08:46:00.295Z,100695.31
2023-05-19T08:47:05.443Z,100696.25
2023-05-19T08:48:08.670Z,100689.13
2023-05-19T08:49:13.844Z,100694.41
2023-05-19T08:50:21.560Z,100684.06
2023-05-19T08:51:51.009Z,100690.22
2023-05-19T08:52:58.032Z,100696.94
2023-05-19T08:54:12.980Z,100700.53
2023-05-19T08:55:34.320Z,100696.31
2023-05-19T08:56:37.956Z,100702.47
2023-05-19T08:57:41.075Z,100699.84
2023-05-19T08:58:44.983Z,100697.50
2023-05-19T08:59:49.145Z,100692.88
2023-05-19T09:00:52.513Z,100695.38
2023-05-19T09:01:55.547Z,100692.69
2023-05-19T09:03:05.973Z,100691.41
2023-05-19T09:04:14.783Z,100688.94
2023-05-19T09:05:20.221Z,100689.38
2023-05-19T09:06:22.363Z,100684.47
2023-05-19T09:07:26.356Z,100696.56
2023-05-19T09:08:28.607Z,100690.22
2023-05-19T09:09:30.901Z,100686.16
2023-05-19T09:10:33.036Z,100683.31
2023-05-19T09:11:37.714Z,100688.97
2023-05-19T09:12:40.091Z,100689.72
2023-05-19T09:13:42.398Z,100684.31
2023-05-19T09:14:44.538Z,100693.38
2023-05-19T09:15:48.936Z,100688.66
2023-05-19T09:16:53.197Z,100694.34
2023-05-19T09:18:12.069Z,100688.75
2023-05-19T09:19:17.476Z,100686.25
2023-05-19T09:20:19.824Z,100689.72
2023-05-19T09:21:34.163Z,100685.06
2023-05-19T09:22:41.893Z,100686.25
2023-05-19T09:23:47.795Z,100688.81
2023-05-19T09:24:50.216Z,100692.69
2023-05-19T09:25:54.151Z,100693.63
2023-05-19T09:26:58.520Z,100689.59
2023-05-19T09:28:01.989Z,100690.47
2023-05-19T09:29:14.908Z,100694.91
2023-05-19T09:30:20.816Z,100696.25
2023-05-19T09:31:23.666Z,100683.28
2023-05-19T09:32:29.515Z,100686.22
2023-05-19T09:33:34.234Z,100682.19
2023-05-19T09:34:42.396Z,100678.81
2023-05-19T09:35:47.819Z,100685.13
2023-05-19T09:36:52.114Z,100685.63
2023-05-19T09:37:55.394Z,100673.47
2023-05-19T09:38:57.605Z,100672.41
2023-05-19T09:40:00.569Z,100673.59
2023-05-19T09:41:03.434Z,100670.59
2023-05-19T09:42:07.672Z,100677.13
2023-05-19T09:43:10.305Z,100676.19
2023-05-19T09:44:21.461Z,100671.84
2023-05-19T09:45:23.517Z,100672.97
2023-05-19T09:46:30.257Z,100663.31
2023-05-19T09:47:40.258Z,100667.81
2023-05-19T09:48:42.759Z,100672.63
2023-05-19T09:49:48.019Z,100669.50
2023-05-19T09:50:51.920Z,100676.16
2023-05-19T09:51:57.539Z,100667.84
2023-05-19T09:53:00.466Z,100670.50
2023-05-19T09:54:03.073Z,100667.38
2023-05-19T09:55:13.640Z,100658.28
2023-05-19T09:56:23.936Z,100674.44
2023-05-19T09:57:29.736Z,100660.06
2023-05-19T09:58:35.698Z,100657.03
2023-05-19T09:59:39.392Z,100665.84
2023-05-19T10:00:41.615Z,100670.16
2023-05-19T10:01:46.720Z,100665.25
2023-05-19T10:02:51.022Z,100661.31
2023-05-19T10:03:53.929Z,100669.16
2023-05-19T10:04:56.358Z,100668.31
2023-05-19T10:06:01.276Z,100669.06
2023-05-19T10:07:06.097Z,100671.75
2023-05-19T10:08:10.607Z,100669.50
2023-05-19T10:09:13.912Z,100671.09
2023-05-19T10:10:16.291Z,100658.91
2023-05-19T10:11:18.838Z,100659.50
2023-05-19T10:12:21.493Z,100668.53
2023-05-19T10:13:24.636Z,100669.13
2023-05-19T10:14:28.811Z,100667.75
2023-05-19T10:15:32.999Z,100666.47
2023-05-19T10:16:36.595Z,100665.66
2023-05-19T10:17:40.857Z,100662.81
2023-05-19T10:18:43.490Z,100657.59
2023-05-19T10:19:46.302Z,100657.59
2023-05-19T10:20:50.510Z,100665.47
2023-05-19T10:21:53.559Z,100664.19
2023-05-19T10:22:55.965Z,100665.66
2023-05-19T10:23:58.244Z,100658.88
2023-05-19T10:25:00.542Z,100658.91
2023-05-19T10:26:06.838Z,100658.88
2023-05-19T10:27:14.478Z,100662.50
2023-05-19T10:28:20.722Z,100665.69
2023-05-19T10:29:28.313Z,100667.97
2023-05-19T10:30:34.936Z,100660.31
2023-05-19T10:31:40.423Z,100665.88
2023-05-19T10:32:45.208Z,100652.84
2023-05-19T10:34:10.373Z,100657.81
2023-05-19T10:35:50.876Z,100658.31
2023-05-19T10:37:17.368Z,100652.06
2023-05-19T10:38:47.337Z,100659.91
2023-05-19T10:39:51.590Z,100654.41
2023-05-19T10:41:03.290Z,100656.66
2023-05-19T10:42:38.376Z,100655.66
2023-05-19T10:43:43.180Z,100645.56
2023-05-19T10:45:22.534Z,100660.50
2023-05-19T10:46:27.512Z,100649.66
2023-05-19T10:47:30.501Z,100656.53
2023-05-19T10:48:38.617Z,100656.06
2023-05-19T10:49:41.101Z,100658.03
2023-05-19T10:50:47.193Z,100650.69
2023-05-19T10:51:50.182Z,100650.53
2023-05-19T10:52:56.822Z,100654.00
2023-05-19T10:54:02.967Z,100654.06
2023-05-19T10:55:08.872Z,100652.69
2023-05-19T10:56:10.949Z,100655.50
2023-05-19T10:57:17.237Z,100656.25
2023-05-19T10:58:42.254Z,100657.66
2023-05-19T10:59:45.188Z,100643.25
2023-05-19T11:00:47.723Z,100651.63
2023-05-19T11:01:49.873Z,100652.75
2023-05-19T11:02:56.478Z,100647.34
2023-05-19T11:04:04.703Z,100642.00
2023-05-19T11:05:16.956Z,100655.63
2023-05-19T11:06:20.566Z,100648.38
2023-05-19T11:07:22.682Z,100648.13
2023-05-19T11:08:35.288Z,100647.06
2023-05-19T11:09:43.374Z,100648.53
2023-05-19T11:10:46.505Z,100647.28
2023-05-19T11:11:54.271Z,100650.25
2023-05-19T11:12:58.411Z,100640.00
2023-05-19T11:14:11.494Z,100643.84
2023-05-19T11:15:16.947Z,100643.19
2023-05-19T11:16:23.097Z,100645.16
2023-05-19T11:17:25.770Z,100638.22
2023-05-19T11:18:28.376Z,100640.84
2023-05-19T11:19:36.105Z,100640.31
2023-05-19T11:20:39.534Z,100639.88
2023-05-19T11:21:55.665Z,100645.94
2023-05-19T11:23:09.748Z,100637.22
2023-05-19T11:24:38.253Z,100630.13
2023-05-19T11:25:52.368Z,100646.13
2023-05-19T11:26:55.208Z,100644.34
2023-05-19T11:27:58.237Z,100645.38
2023-05-19T11:29:00.683Z,100645.78
2023-05-19T11:30:15.230Z,100642.69
2023-05-19T11:31:19.411Z,100644.75
2023-05-19T11:32:22.965Z,100648.56
2023-05-19T11:33:29.369Z,100645.13
2023-05-19T11:34:32.261Z,100651.81
2023-05-19T11:35:36.295Z,100649.84
2023-05-19T11:36:40.293Z,100651.03
2023-05-19T11:37:43.231Z,100643.16
2023-05-19T11:38:45.646Z,100643.91
2023-05-19T11:39:47.973Z,100644.09
2023-05-19T11:40:52.858Z,100642.97
2023-05-19T11:41:56.393Z,100645.34
2023-05-19T11:42:59.496Z,100638.25
2023-05-19T11:44:04.442Z,100637.75
2023-05-19T11:45:07.527Z,100637.75
2023-05-19T11:46:10.095Z,100635.63
2023-05-19T11:47:14.092Z,100641.91
2023-05-19T11:48:16.225Z,100639.00
2023-05-19T11:49:19.076Z,100648.84
2023-05-19T11:50:21.563Z,100645.47
2023-05-19T11:51:24.119Z,100643.63
2023-05-19T11:52:30.021Z,100645.59
2023-05-19T11:53:36.449Z,100651.41
2023-05-19T11:54:39.485Z,100644.66
2023-05-19T11:55:44.623Z,100647.34
2023-05-19T11:56:46.661Z,100649.09
2023-05-19T11:58:05.013Z,100648.56
2023-05-19T11:59:11.036Z,100647.47
2023-05-19T12:00:14.885Z,100655.09
2023-05-19T12:01:16.779Z,100654.91
2023-05-19T12:02:22.743Z,100645.81
2023-05-19T12:03:29.017Z,100641.94
2023-05-19T12:04:32.290Z,100648.34
2023-05-19T12:05:41.979Z,100648.34
2023-05-19T12:06:45.234Z,100638.41
2023-05-19T12:07:50.144Z,100639.97
2023-05-19T12:08:53.120Z,100650.81
2023-05-19T12:09:57.043Z,100641.97
2023-05-19T12:11:00.004Z,100643.81
2023-05-19T12:12:03.203Z,100645.28
2023-05-19T12:13:08.323Z,100649.88
2023-05-19T12:14:11.503Z,100655.78
2023-05-19T12:15:14.744Z,100651.13
2023-05-19T12:16:20.834Z,100647.53
2023-05-19T12:17:25.918Z,100650.38
2023-05-19T12:18:34.323Z,100645.19